.
WxDataArchive / Data Records for 2013-09-27
2013-09-26 September 2013 2013-09-28

Data Records for Friday, 27 September 2013

Time	Temp	Chill	HIndex	Humid	Dewpt	 Wind 	HiWind	WindDir	Rain 	Barom 
-----	----	-----	------	-----	-----	------	------	-------	-----	----- 
00:00	53.5	53.5	53.5	61	40.4	0	0	---	0.00	30.106 
00:05	53.1	53.1	53.1	62	40.4	0	0	---	0.00	30.106 
00:10	52.8	52.8	52.8	63	40.6	0	0	---	0.00	30.106 
00:15	52.3	52.3	52.3	64	40.5	0	0	---	0.00	30.104 
00:20	52.0	52.0	52.0	65	40.6	0	0	---	0.00	30.104 
00:25	51.6	51.6	51.6	66	40.6	0	0	---	0.00	30.104 
00:30	51.3	51.3	51.3	68	41.1	0	0	---	0.00	30.108 
00:35	51.1	51.1	51.1	69	41.3	0	0	---	0.00	30.108 
00:40	50.8	50.8	50.8	69	41.0	0	0	---	0.00	30.108 
00:45	50.7	50.7	50.7	70	41.3	0	0	---	0.00	30.108 
00:50	50.4	50.4	50.4	71	41.4	0	0	---	0.00	30.108 
00:55	50.2	50.2	50.2	72	41.5	0	0	---	0.00	30.108 
01:00	49.9	49.9	49.9	72	41.2	0	0	---	0.00	30.112 
01:05	49.8	49.8	49.8	73	41.5	0	0	---	0.00	30.112 
01:10	49.6	49.6	49.6	73	41.3	0	0	---	0.00	30.112 
01:15	49.5	49.5	49.5	75	41.9	0	0	---	0.00	30.112 
01:20	49.4	49.4	49.4	76	42.2	0	0	---	0.00	30.112 
01:25	49.2	49.2	49.2	77	42.3	0	0	---	0.00	30.112 
01:30	49.1	49.1	49.1	77	42.2	0	0	---	0.00	30.112 
01:35	49.1	49.1	49.1	78	42.5	0	0	---	0.00	30.112 
01:40	48.9	48.9	48.9	78	42.3	0	0	---	0.00	30.112 
01:45	48.8	48.8	48.8	79	42.6	0	0	---	0.00	30.113 
01:50	48.6	48.6	48.6	79	42.4	0	0	---	0.00	30.113 
01:55	48.5	48.5	48.5	80	42.6	0	0	---	0.00	30.113 
02:00	48.3	48.3	48.3	80	42.4	0	0	---	0.00	30.115 
02:05	48.2	48.2	48.2	81	42.6	0	0	---	0.00	30.115 
02:10	48.0	48.0	48.0	81	42.5	0	0	---	0.00	30.115 
02:15	47.9	47.9	47.9	81	42.4	0	0	---	0.00	30.115 
02:20	47.7	47.7	47.7	82	42.5	0	0	---	0.00	30.115 
02:25	47.6	47.6	47.6	82	42.4	0	0	---	0.00	30.115 
02:30	47.6	47.6	47.6	83	42.7	0	0	---	0.00	30.117 
02:35	47.4	47.4	47.4	83	42.5	0	0	---	0.00	30.117 
02:40	47.4	47.4	47.4	83	42.5	0	0	---	0.00	30.117 
02:45	47.4	47.4	47.4	84	42.8	0	0	---	0.00	30.119 
02:50	47.9	47.9	47.9	85	43.6	0	1	68	0.00	30.119 
02:55	48.8	48.8	48.8	85	44.5	0	1	68	0.00	30.119 
03:00	49.8	49.8	49.8	83	44.8	0	1	68	0.00	30.112 
03:05	50.7	50.7	50.7	80	44.8	0	2	68	0.00	30.112 
03:10	51.6	51.6	51.6	78	45.0	0	3	68	0.00	30.112 
03:15	52.0	52.0	52.0	77	45.0	0	1	68	0.00	30.110 
03:20	52.3	52.3	52.3	75	44.6	0	1	68	0.00	30.110 
03:25	52.3	52.3	52.3	75	44.6	0	1	68	0.00	30.110 
03:30	52.2	52.2	52.2	75	44.5	0	0	---	0.00	30.111 
03:35	51.9	51.9	51.9	75	44.2	0	0	---	0.00	30.111 
03:40	51.6	51.6	51.6	76	44.3	0	0	---	0.00	30.111 
03:45	51.1	51.1	51.1	77	44.1	0	0	---	0.00	30.114 
03:50	50.8	50.8	50.8	77	43.9	0	0	---	0.00	30.114 
03:55	50.4	50.4	50.4	77	43.5	0	0	---	0.00	30.114 
04:00	50.2	50.2	50.2	79	43.9	0	0	---	0.00	30.114 
04:05	49.9	49.9	49.9	80	44.0	0	0	---	0.00	30.114 
04:10	49.6	49.6	49.6	81	44.0	0	0	---	0.00	30.114 
04:15	49.5	49.5	49.5	81	43.9	0	0	---	0.00	30.114 
04:20	49.2	49.2	49.2	82	43.9	0	0	---	0.00	30.114 
04:25	49.1	49.1	49.1	83	44.2	0	0	---	0.00	30.114 
04:30	48.8	48.8	48.8	83	43.9	0	0	---	0.00	30.119 
04:35	48.6	48.6	48.6	84	44.0	0	0	---	0.00	30.119 
04:40	48.5	48.5	48.5	84	43.9	0	0	---	0.00	30.119 
04:45	48.2	48.2	48.2	85	43.9	0	0	---	0.00	30.128 
04:50	48.0	48.0	48.0	85	43.7	0	0	---	0.00	30.128 
04:55	47.9	47.9	47.9	86	43.9	0	0	---	0.00	30.128 
05:00	47.9	47.9	47.9	86	43.9	0	0	---	0.00	30.130 
05:05	47.9	47.9	47.9	87	44.2	0	0	---	0.00	30.130 
05:10	47.9	47.9	47.9	88	44.5	0	0	---	0.00	30.130 
05:15	47.9	47.9	47.9	88	44.5	0	0	---	0.00	30.137 
05:20	47.7	47.7	47.7	88	44.3	0	0	---	0.00	30.137 
05:25	47.6	47.6	47.6	89	44.5	0	0	---	0.00	30.137 
05:30	47.6	47.6	47.6	89	44.5	0	0	---	0.00	30.138 
05:35	47.6	47.6	47.6	89	44.5	0	0	---	0.00	30.138 
05:40	47.6	47.6	47.6	90	44.8	0	0	---	0.00	30.138 
05:45	47.6	47.6	47.6	90	44.8	0	0	---	0.00	30.139 
05:50	47.6	47.6	47.6	90	44.8	0	0	---	0.00	30.139 
05:55	47.6	47.6	47.6	90	44.8	0	0	---	0.00	30.139 
06:00	47.4	47.4	47.4	91	44.9	0	0	---	0.00	30.143 
06:05	47.4	47.4	47.4	91	44.9	0	0	---	0.00	30.143 
06:10	47.3	47.3	47.3	91	44.8	0	0	---	0.00	30.143 
06:15	47.1	47.1	47.1	91	44.6	0	0	---	0.00	30.145 
06:20	47.1	47.1	47.1	91	44.6	0	0	---	0.00	30.145 
06:25	47.0	47.0	47.0	91	44.5	0	0	---	0.00	30.145 
06:30	46.8	46.8	46.8	91	44.3	0	0	---	0.00	30.146 
06:35	46.7	46.7	46.7	91	44.2	0	0	---	0.00	30.146 
06:40	46.5	46.5	46.5	91	44.0	0	0	---	0.00	30.146 
06:45	46.5	46.5	46.5	91	44.0	0	0	---	0.00	30.150 
06:50	46.5	46.5	46.5	92	44.3	0	0	---	0.00	30.150 
06:55	46.5	46.5	46.5	92	44.3	0	0	---	0.00	30.150 
07:00	46.5	46.5	46.5	92	44.3	0	0	---	0.00	30.159 
07:05	46.5	46.5	46.5	92	44.3	0	0	---	0.00	30.159 
07:10	46.4	46.4	46.4	92	44.2	0	0	---	0.00	30.159 
07:15	46.2	46.2	46.2	92	44.0	0	0	---	0.00	30.169 
07:20	46.1	46.1	46.1	92	43.9	0	0	---	0.00	30.169 
07:25	46.1	46.1	46.1	92	43.9	0	0	---	0.00	30.169 
07:30	46.0	46.0	46.0	92	43.8	0	0	---	0.00	30.176 
07:35	45.8	45.8	45.8	92	43.6	0	0	---	0.00	30.176 
07:40	45.7	45.7	45.7	92	43.5	0	0	---	0.00	30.176 
07:45	45.7	45.7	45.7	92	43.5	0	0	---	0.00	30.178 
07:50	45.5	45.5	45.5	92	43.3	0	0	---	0.00	30.178 
07:55	45.5	45.5	45.5	92	43.3	0	0	---	0.00	30.178 
08:00	45.7	45.7	45.7	93	43.8	0	0	---	0.00	30.182 
08:05	46.0	46.0	46.0	93	44.1	0	0	---	0.00	30.182 
08:10	46.0	46.0	46.0	93	44.1	0	0	---	0.00	30.182 
08:15	46.1	46.1	46.1	93	44.2	0	0	---	0.00	30.185 
08:20	46.2	46.2	46.2	93	44.3	0	0	---	0.00	30.185 
08:25	46.5	46.5	46.5	93	44.6	0	0	---	0.00	30.185 
08:30	46.8	46.8	46.8	93	44.9	0	0	---	0.00	30.183 
08:35	47.4	47.4	47.4	94	45.8	0	0	---	0.00	30.183 
08:40	48.3	48.3	48.3	95	46.9	0	0	---	0.00	30.183 
08:45	49.8	49.8	49.8	96	48.7	0	2	68	0.00	30.183 
08:50	51.9	51.9	51.9	96	50.8	1	3	68	0.00	30.183 
08:55	53.1	53.1	53.1	96	52.0	1	3	68	0.00	30.183 
09:00	53.6	53.6	53.6	95	52.2	1	4	68	0.00	30.181 
09:05	54.1	54.1	54.1	95	52.7	1	4	90	0.00	30.181 
09:10	54.5	54.5	54.5	94	52.8	1	3	90	0.00	30.181 
09:15	54.8	54.8	54.8	94	53.1	0	1	90	0.00	30.183 
09:20	55.3	55.3	55.3	94	53.6	0	2	90	0.00	30.183 
09:25	55.7	55.7	55.7	93	53.7	1	4	90	0.00	30.183 
09:30	56.2	56.2	56.2	92	53.9	1	3	90	0.00	30.181 
09:35	56.5	56.5	56.5	92	54.2	1	3	90	0.00	30.181 
09:40	56.9	56.9	56.9	91	54.3	1	2	90	0.00	30.181 
09:45	57.5	57.5	57.5	90	54.6	0	3	90	0.00	30.180 
09:50	58.1	58.1	58.1	89	54.9	0	2	90	0.00	30.180 
09:55	58.6	58.6	58.6	88	55.1	0	2	90	0.00	30.180 
10:00	59.0	59.0	59.0	88	55.4	1	4	90	0.00	30.186 
10:05	59.5	59.5	59.5	87	55.6	1	4	90	0.00	30.186 
10:10	59.8	59.8	59.8	86	55.6	1	4	90	0.00	30.186 
10:15	60.4	60.4	60.4	85	55.9	1	4	112	0.00	30.193 
10:20	61.2	61.2	61.2	84	56.3	1	4	112	0.00	30.193 
10:25	62.1	62.1	62.1	82	56.5	1	5	112	0.00	30.193 
10:30	63.1	63.1	63.1	79	56.5	2	5	90	0.00	30.190 
10:35	63.7	63.7	63.7	78	56.7	1	4	90	0.00	30.190 
10:40	64.5	64.5	64.5	76	56.8	2	4	90	0.00	30.190 
10:45	65.2	65.2	65.2	76	57.4	2	4	112	0.00	30.188 
10:50	65.8	65.8	65.8	73	56.9	2	6	112	0.00	30.188 
10:55	66.3	66.3	66.3	73	57.4	2	4	112	0.00	30.188 
11:00	66.6	66.6	66.6	72	57.3	2	6	90	0.00	30.186 
11:05	67.1	67.1	67.1	72	57.8	2	5	90	0.00	30.186 
11:10	67.4	67.4	67.4	69	56.9	3	8	90	0.00	30.186 
11:15	67.3	67.3	67.3	70	57.2	4	7	90	0.00	30.190 
11:20	67.8	67.8	67.8	71	58.0	2	7	90	0.00	30.190 
11:25	68.3	68.3	68.3	69	57.7	2	7	90	0.00	30.190 
11:30	68.4	68.4	68.4	69	57.8	2	7	112	0.00	30.186 
11:35	68.8	68.8	68.8	68	57.8	1	6	68	0.00	30.186 
11:40	69.3	69.3	69.3	66	57.4	2	5	68	0.00	30.186 
11:45	69.4	69.4	69.4	67	58.0	2	4	90	0.00	30.185 
11:50	70.1	70.1	70.1	64	57.3	2	6	90	0.00	30.185 
11:55	70.4	70.4	70.4	63	57.2	2	5	112	0.00	30.185 
12:00	70.1	70.1	70.1	62	56.5	3	11	90	0.00	30.181 
12:05	70.1	70.1	70.1	63	56.9	2	5	90	0.00	30.181 
12:10	70.4	70.4	70.4	62	56.7	3	6	90	0.00	30.181 
12:15	70.4	70.4	70.4	62	56.7	3	6	90	0.00	30.183 
12:20	70.4	70.4	70.4	62	56.7	3	6	90	0.00	30.183 
12:25	70.4	70.4	70.4	62	56.7	2	6	90	0.00	30.183 
12:30	70.9	70.9	70.9	61	56.8	2	7	90	0.00	30.177 
12:35	71.5	71.5	71.5	58	55.9	2	4	90	0.00	30.177 
12:40	71.6	71.6	71.6	58	56.0	2	7	90	0.00	30.177 
12:45	71.8	71.8	71.8	58	56.2	2	7	112	0.00	30.176 
12:50	72.3	72.3	72.3	58	56.7	1	5	68	0.00	30.176 
12:55	72.7	72.7	72.7	58	57.1	1	4	90	0.00	30.176 
13:00	72.8	72.8	72.8	58	57.1	2	5	90	0.00	30.176 
13:05	72.7	72.7	72.7	54	55.1	2	7	90	0.00	30.176 
13:10	72.8	72.8	72.8	55	55.7	2	5	90	0.00	30.176 
13:15	73.0	73.0	73.0	54	55.4	2	6	90	0.00	30.175 
13:20	73.0	73.0	73.0	53	54.8	2	6	90	0.00	30.175 
13:25	73.2	73.2	73.2	50	53.4	3	6	112	0.00	30.175 
13:30	73.2	73.2	73.2	50	53.4	3	7	68	0.00	30.175 
13:35	73.3	73.3	73.3	49	53.0	2	5	68	0.00	30.175 
13:40	73.5	73.5	73.5	51	54.2	1	3	68	0.00	30.175 
13:45	74.0	74.0	74.0	49	53.6	2	4	68	0.00	30.163 
13:50	74.2	74.2	74.2	48	53.2	2	9	90	0.00	30.163 
13:55	74.2	74.2	74.2	50	54.3	2	5	68	0.00	30.163 
14:00	74.6	74.6	74.6	48	53.6	2	5	90	0.00	30.160 
14:05	74.7	74.7	74.7	46	52.5	1	6	90	0.00	30.160 
14:10	74.9	74.9	74.9	46	52.7	2	5	90	0.00	30.160 
14:15	75.1	75.1	77.7	46	52.9	2	6	90	0.00	30.155 
14:20	75.1	75.1	77.7	46	52.9	1	3	90	0.00	30.155 
14:25	75.3	75.3	77.7	43	51.2	2	6	90	0.00	30.155 
14:30	75.6	75.6	77.8	45	52.7	1	2	112	0.00	30.146 
14:35	75.8	75.8	77.9	44	52.3	2	5	112	0.00	30.146 
14:40	75.6	75.6	77.8	46	53.3	2	4	112	0.00	30.146 
14:45	75.8	75.8	77.9	45	52.9	1	5	112	0.00	30.139 
14:50	75.8	75.8	77.9	44	52.3	2	6	90	0.00	30.139 
14:55	75.6	75.6	77.7	42	50.9	2	6	90	0.00	30.139 
15:00	75.8	75.8	77.8	43	51.7	2	6	90	0.00	30.134 
15:05	76.1	76.1	77.9	42	51.3	2	4	90	0.00	30.134 
15:10	76.3	76.3	78.0	41	50.8	2	6	90	0.00	30.134 
15:15	76.5	76.5	78.0	40	50.4	2	5	90	0.00	30.135 
15:20	76.7	76.7	78.1	41	51.2	1	4	90	0.00	30.135 
15:25	76.8	76.8	78.1	39	49.9	3	6	90	0.00	30.135 
15:30	76.8	76.8	78.1	39	49.9	1	5	90	0.00	30.128 
15:35	76.8	76.8	78.1	39	49.9	2	5	90	0.00	30.128 
15:40	77.0	77.0	78.1	38	49.4	3	6	90	0.00	30.128 
15:45	77.0	77.0	78.1	37	48.7	2	6	90	0.00	30.125 
15:50	77.0	77.0	78.0	35	47.2	2	5	112	0.00	30.125 
15:55	77.2	77.2	78.1	36	48.2	2	5	90	0.00	30.125 
16:00	77.2	77.2	78.1	36	48.2	3	7	112	0.00	30.124 
16:05	77.2	77.2	78.1	35	47.4	1	4	68	0.00	30.124 
16:10	77.2	77.2	78.1	36	48.2	2	5	112	0.00	30.124 
16:15	77.0	77.0	78.0	35	47.2	3	8	90	0.00	30.121 
16:20	77.0	77.0	78.0	35	47.2	2	5	90	0.00	30.121 
16:25	77.0	77.0	78.0	35	47.2	1	4	90	0.00	30.121 
16:30	77.2	77.2	78.1	36	48.2	1	3	112	0.00	30.121 
16:35	77.4	77.4	78.1	34	46.8	2	5	90	0.00	30.121 
16:40	77.4	77.4	78.1	34	46.8	1	4	90	0.00	30.121 
16:45	77.4	77.4	78.0	33	46.0	3	9	90	0.00	30.114 
16:50	77.2	77.2	78.0	34	46.6	2	6	90	0.00	30.114 
16:55	77.0	77.0	78.0	35	47.2	2	6	68	0.00	30.114 
17:00	77.2	77.2	78.1	35	47.4	3	5	112	0.00	30.112 
17:05	77.0	77.0	77.9	34	46.5	2	6	112	0.00	30.112 
17:10	76.8	76.8	78.0	37	48.5	1	4	112	0.00	30.112 
17:15	76.8	76.8	77.9	35	47.1	1	4	112	0.00	30.112 
17:20	76.8	76.8	77.9	35	47.1	2	5	90	0.00	30.112 
17:25	76.7	76.7	77.8	34	46.2	3	7	90	0.00	30.112 
17:30	76.8	76.8	77.9	35	47.1	2	5	90	0.00	30.112 
17:35	76.7	76.7	77.8	34	46.2	2	5	68	0.00	30.112 
17:40	76.5	76.5	77.8	35	46.8	2	5	68	0.00	30.112 
17:45	76.3	76.3	77.7	36	47.4	1	6	112	0.00	30.114 
17:50	76.3	76.3	77.7	35	46.6	2	6	90	0.00	30.114 
17:55	76.1	76.1	77.6	35	46.4	3	6	68	0.00	30.114 
18:00	76.1	76.1	77.7	36	47.2	2	5	90	0.00	30.112 
18:05	76.1	76.1	77.7	36	47.2	2	5	90	0.00	30.112 
18:10	76.0	76.0	77.6	36	47.1	2	6	90	0.00	30.112 
18:15	75.8	75.8	77.6	36	46.9	3	6	90	0.00	30.112 
18:20	75.6	75.6	77.6	37	47.5	2	4	68	0.00	30.112 
18:25	75.4	75.4	77.5	37	47.3	2	5	90	0.00	30.112 
18:30	75.3	75.3	77.5	38	47.9	2	5	90	0.00	30.111 
18:35	75.1	75.1	77.5	39	48.4	1	4	90	0.00	30.111 
18:40	74.9	74.9	74.9	39	48.3	2	6	90	0.00	30.111 
18:45	74.7	74.7	74.7	40	48.8	2	6	90	0.00	30.110 
18:50	74.4	74.4	74.4	41	49.1	2	6	90	0.00	30.110 
18:55	74.2	74.2	74.2	41	49.0	2	5	112	0.00	30.110 
19:00	73.9	73.9	73.9	43	50.0	1	3	90	0.00	30.114 
19:05	73.5	73.5	73.5	42	49.0	2	6	90	0.00	30.114 
19:10	73.0	73.0	73.0	42	48.5	2	6	68	0.00	30.114 
19:15	72.7	72.7	72.7	42	48.3	1	3	90	0.00	30.117 
19:20	72.3	72.3	72.3	42	47.9	2	9	90	0.00	30.117 
19:25	71.8	71.8	71.8	43	48.1	1	3	90	0.00	30.117 
19:30	71.5	71.5	71.5	43	47.8	1	3	90	0.00	30.116 
19:35	70.9	70.9	70.9	44	47.9	1	4	90	0.00	30.116 
19:40	70.4	70.4	70.4	45	48.0	1	3	90	0.00	30.116 
19:45	70.1	70.1	70.1	46	48.3	2	4	68	0.00	30.116 
19:50	69.6	69.6	69.6	46	47.9	2	5	68	0.00	30.116 
19:55	69.4	69.4	69.4	46	47.7	2	5	68	0.00	30.116 
20:00	69.1	69.1	69.1	47	48.0	1	5	90	0.00	30.120 
20:05	68.6	68.6	68.6	48	48.1	1	2	90	0.00	30.120 
20:10	68.3	68.3	68.3	50	48.9	1	4	90	0.00	30.120 
20:15	67.8	67.8	67.8	53	50.0	1	4	112	0.00	30.121 
20:20	67.4	67.4	67.4	54	50.2	1	3	90	0.00	30.121 
20:25	67.1	67.1	67.1	56	50.9	1	3	90	0.00	30.121 
20:30	66.8	66.8	66.8	57	51.1	1	4	90	0.00	30.120 
20:35	66.4	66.4	66.4	58	51.2	1	4	112	0.00	30.120 
20:40	66.1	66.1	66.1	58	50.9	1	6	112	0.00	30.120 
20:45	66.0	66.0	66.0	59	51.3	2	4	112	0.00	30.125 
20:50	65.8	65.8	65.8	59	51.1	1	3	90	0.00	30.125 
20:55	65.5	65.5	65.5	59	50.8	2	4	45	0.00	30.125 
21:00	65.3	65.3	65.3	59	50.6	2	4	90	0.00	30.130 
21:05	65.2	65.2	65.2	60	51.0	1	4	90	0.00	30.130 
21:10	64.8	64.8	64.8	61	51.0	1	3	90	0.00	30.130 
21:15	64.5	64.5	64.5	61	50.7	1	3	90	0.00	30.129 
21:20	64.2	64.2	64.2	62	50.9	1	3	90	0.00	30.129 
21:25	64.0	64.0	64.0	62	50.7	1	3	90	0.00	30.129 
21:30	63.7	63.7	63.7	62	50.4	0	2	90	0.00	30.138 
21:35	63.5	63.5	63.5	62	50.2	0	2	90	0.00	30.138 
21:40	63.2	63.2	63.2	63	50.4	0	3	90	0.00	30.138 
21:45	62.9	62.9	62.9	64	50.5	0	3	90	0.00	30.142 
21:50	62.6	62.6	62.6	64	50.2	1	3	90	0.00	30.142 
21:55	62.4	62.4	62.4	65	50.5	0	2	90	0.00	30.142 
22:00	62.1	62.1	62.1	65	50.2	0	2	90	0.00	30.147 
22:05	61.8	61.8	61.8	66	50.3	0	2	90	0.00	30.147 
22:10	61.5	61.5	61.5	66	50.0	0	1	90	0.00	30.147 
22:15	61.2	61.2	61.2	67	50.2	0	0	---	0.00	30.144 
22:20	60.7	60.7	60.7	68	50.1	0	0	---	0.00	30.144 
22:25	60.2	60.2	60.2	68	49.6	0	1	90	0.00	30.144 
22:30	59.8	59.8	59.8	70	50.0	0	1	90	0.00	30.149 
22:35	59.8	59.8	59.8	70	50.0	0	3	90	0.00	30.149 
22:40	59.8	59.8	59.8	70	50.0	0	2	90	0.00	30.149 
22:45	59.8	59.8	59.8	70	50.0	1	2	90	0.00	30.150 
22:50	59.8	59.8	59.8	70	50.0	1	3	90	0.00	30.150 
22:55	59.6	59.6	59.6	71	50.2	1	2	90	0.00	30.150 
23:00	59.5	59.5	59.5	71	50.1	1	3	90	0.00	30.147 
23:05	59.5	59.5	59.5	72	50.5	1	2	90	0.00	30.147 
23:10	59.3	59.3	59.3	73	50.6	1	3	90	0.00	30.147 
23:15	59.2	59.2	59.2	73	50.5	1	2	90	0.00	30.144 
23:20	58.9	58.9	58.9	73	50.3	0	5	90	0.00	30.144 
23:25	58.7	58.7	58.7	74	50.4	1	2	90	0.00	30.144 
23:30	58.6	58.6	58.6	75	50.7	0	2	90	0.00	30.141 
23:35	58.4	58.4	58.4	75	50.5	1	3	90	0.00	30.141 
23:40	58.3	58.3	58.3	76	50.8	1	3	90	0.00	30.141 
23:45	58.1	58.1	58.1	76	50.6	1	2	90	0.00	30.139 
23:50	58.0	58.0	58.0	77	50.8	1	2	90	0.00	30.139 
23:55	57.8	57.8	57.8	77	50.6	1	3	90	0.00	30.139 

CoCoRaHS
IN-AL-39
A2 Web Hosting
Creative Commons License
GoDaddy
search engine by freefind advanced

loaded 2018-11-16 23:47:18 • last modified 2010-11-18 10:43:29
Privacy PolicyDisclaimer
• wx.awcolley.com is powered by PmWiki v.2002016 •
• all content (unless otherwise noted) © 2018 A W Colley